地震雲掲示板

記事の表示

選択した記事を表示しています。
スレッドに投稿された全ての記事をご覧になりたい場合は、スレッドをクリックして下さい。

VvciZtimexrluQCE (-)

NO.2421 Leigh 2015/08/14 Fri 08:35 編集 【スレッド表示】
  • 返信する

Other amount <a href=" http://www.champoegnursery.com/do-you-need-a-prescription-for-dapoxetine.pdf ">do you need a prescription for dapoxetine
</a> During its short peak, JPMorgan's global commodity operationwas considered the largest on Wall Street, supplying crude oilto the biggest refinery on the East Coast and holding enoughelectricity contracts to power Indiana's 2.8 million homes. Itwas one of the 10 largest U.S. natural gas traders.


▲ページTOPへ


関連記事

関連する記事(親記事とレス)をツリー表示しています。選択中の記事は赤い文字で表示されています。

  1. 1656 福島県 ゴーオン 10/31 17:12 福島県
  2. 1697 レス age 02/01 02:45
  3. 1717 Re: 繝ャ繧ケ Ankur 12/14 18:21
  4. 1719 Re: 繝ャ繧ケ yfxfrjmfqdq 12/15 18:59
  5. 1721 Re: 繝ャ繧ケ pjnuyhu 12/18 16:44
  6. 1997 Very valid, pithy, s Unggas 07/27 23:34
  7. 2360 http://aog.com.tw/toms.php toms官網 06/23 22:18
  8. 1998 <a href="http://tjpe Tamim 07/29 21:50
  9. 1999 <a href="http://vi Anjii 12/27 04:29
  10. 2000 <a href="http://ca Reignbeau 12/28 03:27
  11. 2001 <a href="http://ca Githa 12/28 07:51
  12. 2002 <a href="http://vi Nerice 12/28 09:27
  13. 2003 <a href="http://ca Laquisha 12/28 19:49
  14. 2004 <a href="http://bu Emily 12/30 10:30
  15. 2005 <a href="http://bu Deejay 12/30 10:30
  16. 2006 <a href="http://bu Melvina 12/30 14:37
  17. 2007 <a href="http://bu Eddie 12/30 16:45
  18. 2008 <a href="http://bu Staysha 12/30 17:23
  19. 2009 <a href="http://bu Jayce 12/30 19:14
  20. 2010 <a href="http://bu Romby 12/30 20:22
  21. 2011 <a href="http://bu Lorrie 12/30 21:19
  22. 2012 <a href="http://bu Minerva 12/30 23:20
  23. 2013 <a href="http://bu Staysha 12/31 02:24
  24. 2014 <a href="http://bu Adelie 12/31 07:34
  25. 2015 <a href="http://bu Kalie 12/31 13:08
  26. 2016 <a href="http://bu Adele 12/31 14:17
  27. 2017 <a href="http://bu Shermaine 12/31 17:52
  28. 2018 <a href="http://bu Trinity 01/01 02:12
  29. 2019 <a href="http://bu Loree 01/01 04:43
  30. 2020 <a href="http://bu Jessie 01/01 07:18
  31. 2021 <a href="http://bu Ellyanna 01/01 12:22
  32. 2022 <a href="http://bu Kailee 01/01 14:26
  33. 2023 <a href="http://bu Graceland 01/01 23:46
  34. 2024 <a href="http://bu Davian 01/02 00:02
  35. 2025 <a href="http://bu Crissy 01/02 07:07
  36. 2026 <a href="http://bu Jaylon 01/02 13:32
  37. 2027 <a href="http://bu Deena 01/02 14:09
  38. 2028 <a href="http://bu Cady 01/02 14:22
  39. 2029 <a href="http://bu Kayleen 01/02 21:12
  40. 2030 <a href="http://bu Bubi 01/02 21:17
  41. 2031 <a href="http://bu Conyers 01/02 21:41
  42. 2032 <a href="http://bu Debra 01/03 00:19
  43. 2033 <a href="http://sm Adiana 01/03 03:35
  44. 2034 <a href="http://sm Zaiyah 01/03 10:26
  45. 2035 <a href="http://sm Ivalene 01/03 10:30
  46. 2036 <a href="http://sm Aileen 01/03 15:39
  47. 2037 <a href="http://sm Deena 01/03 16:16
  48. 2038 <a href="http://sm Keys 01/04 01:39
  49. 2039 <a href="http://sm Tina 01/04 07:51
  50. 2040 <a href="http://sm Lisa 01/04 10:01
  51. 2041 <a href="http://sm Bono 01/04 12:09
  52. 2042 <a href="http://sm Chelsia 01/04 13:55
  53. 2043 <a href="http://sm Nevea 01/04 22:26
  54. 2044 <a href="http://sm Augustina 01/04 22:47
  55. 2045 <a href="http://sm Maliyah 01/05 11:24
  56. 2046 <a href="http://sm Indian 01/05 12:59
  57. 2047 <a href="http://sm Tuesday 01/05 17:14
  58. 2048 <a href="http://bu Kaylan 01/06 01:41
  59. 2049 <a href="http://bu Kristy 01/06 04:27
  60. 2050 <a href="http://bu Jonalyn 01/06 07:21
  61. 2051 <a href="http://bu Jacey 01/06 15:24
  62. 2052 <a href="http://bu Lynn 01/06 21:29
  63. 2349 testosterone <a hre Kameryn 02/11 22:22
  64. 2364 PNeLMqmqQM Bradley 08/13 01:39
  65. 2385 XZAFpMgVbmLcsAuH Abdul 08/14 07:38
  66. 2386 nlHoTvGDhUkh Cleveland 08/14 07:38
  67. 2393 RlElttncGJOqpQAaks Elmer 08/14 07:44
  68. 2395 TJfzTDHuIoouAhLLo Wilber 08/14 07:45
  69. 2396 YcvPPsexZeHf Shirley 08/14 07:46
  70. 2398 wtvmlDKrrddwobM Bryon 08/14 07:48
  71. 2399 rdUcrpdYhvioceqLkq Jamie 08/14 07:48
  72. 2400 DilsamyAUIshVOYW Columbus 08/14 07:49
  73. 2401 RicRMyCuebaUvQumSZ Alvin 08/14 07:49
  74. 2404 JjFBLLyiVY Kirby 08/14 07:52
  75. 2406 fbwNTonIQpwOXi Duncan 08/14 07:55
  76. 2407 CuVnelWuPg Jerome 08/14 07:55
  77. 2408 lQHZzBmLSXc Rebecca 08/14 07:57
  78. 2413 RzDyKTTYxFsn Frederic 08/14 08:03
  79. 2414 JWFGcymjvlOgC Randall 08/14 08:03
  80. 2415 jOtUyTQZLJnXfbdRX Brett 08/14 08:03
  81. 2418 AZLDqjbAPeuQS Reuben 08/14 08:06
  82. 2420 uFnPfzKvErrCMcGEvs Dewitt 08/14 08:31
  83. 2423 hzFkYiTPQNE Corey 08/14 08:40
  84. 2424 yOBsOEpkzYJaUzJyNv Morgan 08/14 08:40
  85. 2449 DsYCpEgQWfYps Dallas 08/14 09:42
  86. 2452 GFIQFXqmuJPgDEoAPt Jerrod 08/14 09:43
  87. 2453 fTNBctTFzjoioTfP Leah 08/14 09:44
  88. 2454 QHwQlSzlMFtMmyLvS Lifestile 08/14 09:44
  89. 2455 FLpILamWWNKR Demarcus 08/14 09:45
  90. 2458 PAaTyWsDPoSs Arden 08/14 09:47
  91. 2459 aTVqddJjWSMgbJLoZl Brooke 08/14 09:48
  92. 2460 etyQWKRSWWyF Normand 08/14 09:50
  93. 2462 dGrevtPcOVlUNFAz Deshawn 08/14 09:50
  94. 2466 pecuNVfUmRY Rodrick 08/14 09:56
  95. 2467 QiImhssqWwPEFoNEjan Hunter 08/14 09:56
  96. 2468 ppUOffMCHd Trenton 08/14 09:56
  97. 2469 miVQiMJNTfvgDSFY Caroline 08/14 10:00
  98. 2476 mGCeYxzpEoRjhsfuyR Dylan 08/14 10:05
  99. 2477 FSkTIGmjyaHIsrGH David 08/14 10:05
  100. 2478 tOgkxuZJPQsMQFgZTa Isabel 08/14 10:06
  101. 2479 ZoPZTOhcIriC Winfred 08/14 10:07
  102. 2481 RayHcbJengrZmlq Margarito 08/14 10:15
  103. 2485 VAsChEXBXcbsPks Amelia 08/14 10:41
  104. 2486 FbLywCMckJ Anna 08/14 10:41
  105. 2501 YXNdziDqlCSHbHqskl Arianna 08/14 11:30
  106. 2512 MNeDPKpYSOmJrfx Casey 08/14 11:48
  107. 2515 ZvMSvUSsmm Eddie 08/14 11:52
  108. 2516 zprlzRyMlJdfAo Roland 08/14 11:52
  109. 2517 apeueyhlzHXh Leslie 08/14 11:52
  110. 2518 dlawXgpcpNeBMUGJqFv Jeremy 08/14 11:52
  111. 2519 rbKzTLvddMk Willard 08/14 11:53
  112. 2521 ayEknfcyOHhZbQCOgM Major 08/14 11:57
  113. 2522 jOLDqnfJZOE Domenic 08/14 11:57
  114. 2523 EJkNPJbHgpUKTaXqnwq Maurice 08/14 12:00
  115. 2528 TedWbPYPoVw Jerrod 08/14 12:07
  116. 2529 LBOZKaafWUhAxhmSsk Trenton 08/14 12:07
  117. 2530 gxjLzBiCrPyeKI Lindsay 08/14 12:08
  118. 2533 MFbsNhoBEGzWLUp Frankie 08/14 12:11
  119. 2536 XLNqSSDRBbeTdO Foster 08/14 12:15
  120. 2537 JzfvInLQhmoOOL Diana 08/14 12:15
  121. 2540 cqoFGwwZcNtNKIcBNHR Daniel 08/14 12:16
  122. 2541 ppIzidrwIFvNDM Eugenio 08/14 12:18
  123. 2544 gUhehuOszp Olivia 08/14 12:56
  124. 2545 OBDdtlrkpTMhVcA Orville 08/14 12:56
  125. 2568 BFpJtDdKdD Kennith 08/14 14:06
  126. 2574 QUsZYaoMNXZtVGKwqkb Quintin 08/14 14:11
  127. 2575 yokZoKGtwWiWXZT Geraldo 08/14 14:11
  128. 2576 mzHybKZlZPbUhRGBT Glenn 08/14 14:11
  129. 2577 mhirFqXBGSo Rosario 08/14 14:12
  130. 2578 LKJyyKvEjfxVKcUGjr Steven 08/14 14:12
  131. 2579 WSQThFRPwRzXGRBlMD Carlo 08/14 14:12
  132. 2580 SpNgGUaMpyJeqiWJBbK Alphonso 08/14 14:14
  133. 2582 KXGxOOqxrYqtqCthR Rickie 08/14 14:17
  134. 2350 brand <a href="http Ellie 02/11 23:54
  135. 2351 easily pick <a href Ziggy 02/17 02:13
  136. 2352 times <a href="http Titia 02/17 05:59
  137. 2353 first thing <a href Hippie 02/17 06:56
  138. 2363 AFisEiBBidpqZ Bradley 08/11 20:05
  139. 2354 The forum is a <a hr Mira 02/17 09:03
  140. 2355 belittle difference Gerri 02/17 09:43
  141. 2362 MUxtCoFgaqOSWbYxCjp gordon 08/11 18:06
  142. 2365 TQnUKaNszyhMp Ernest 08/14 07:03
  143. 2366 fMQyHcgtDBoyIkIroaA Matthew 08/14 07:03
  144. 2367 UCDcfSGMONBtjkVBHZ Eusebio 08/14 07:10
  145. 2368 QpoTbcNKqXnbvO Kennith 08/14 07:10
  146. 2369 gglOXmBCKZsycjC Zachary 08/14 07:13
  147. 2370 XWHIivhYbCSxrM Winfred 08/14 07:13
  148. 2371 QSCkQHudyGS Stephan 08/14 07:14
  149. 2372 naqIBPjcRHOjM Luis 08/14 07:15
  150. 2373 mMxusSJfakLRZi Ronnie 08/14 07:15
  151. 2374 FzGbLilKxkct Alvin 08/14 07:17
  152. 2375 RvQwASGpLWRqpbLmSOW Santiago 08/14 07:19
  153. 2376 nwsqJTVdldvOnF Amia 08/14 07:20
  154. 2377 oCyojOqbMXdEUBDv Lily 08/14 07:22
  155. 2378 lXImOrvkpUqCg Rolland 08/14 07:27
  156. 2379 HEdWJKvJJctWfrqSB Dominic 08/14 07:28
  157. 2380 kRasxQkwVgkQjsuEe Harlan 08/14 07:28
  158. 2381 dBawSsNeIv Laurence 08/14 07:31
  159. 2384 mKgSuyiDvt Jeffery 08/14 07:37
  160. 2416 cKUdneeMWHHa Megan 08/14 08:04
  161. 2417 tTaNCyNJAa Nicolas 08/14 08:04
  162. 2425 wjONWKJRhRUXHYjbox Moshe 08/14 09:02
  163. 2426 MZIymZpNXYtwvyD Rashad 08/14 09:02
  164. 2427 mffIKNiuEvtAHh Behappy 08/14 09:06
  165. 2428 oDUNmUpLPEt Jerrod 08/14 09:06
  166. 2429 fIsvkCsgEZUJXwwinmE Prince 08/14 09:07
  167. 2430 kfACKdgDkeRFPrmVCM Brett 08/14 09:07
  168. 2431 VTRJoeYuxW Freeman 08/14 09:08
  169. 2432 VGNssoyDoYznsCMvMOz Jessie 08/14 09:11
  170. 2433 zYxAvKfDcsiAN Willian 08/14 09:11
  171. 2434 iZUKhaiklU Mohammed 08/14 09:14
  172. 2435 PoejsiKrzloahprVL Barton 08/14 09:18
  173. 2436 aGzyIkYASdoESbxAPW Harlan 08/14 09:18
  174. 2437 fActWpHHeMPMHBC Eblanned 08/14 09:19
  175. 2438 ChwTpgGVmqbZUp Joesph 08/14 09:28
  176. 2439 rvgdYcWLPqZ Ronny 08/14 09:28
  177. 2440 ADzXyIGkegfJyPTq Brian 08/14 09:28
  178. 2441 GxkcXdThRSJIgRXVJo Mishel 08/14 09:30
  179. 2445 dsGknDSGtVioxiCP Marcel 08/14 09:39
  180. 2474 VQglfnrXcDv Bob 08/14 10:03
  181. 2475 CeyUPtTthSjRiwaBU Snoopy 08/14 10:04
  182. 2482 OZHbYAkxwwEGbEzF Benito 08/14 10:34
  183. 2487 cFHQhJjkwlNipinf Stanley 08/14 11:08
  184. 2488 plopQqIJELOLQDAzEjl Jarod 08/14 11:10
  185. 2489 IXCwOnmQfjjuwX Benjamin 08/14 11:10
  186. 2490 QxffZqyOuTAU Dghonson 08/14 11:10
  187. 2491 VFOKknCaaONVEUWokYj Kareem 08/14 11:11
  188. 2492 ZwKpkoXtwVwWaqqtyCX Monty 08/14 11:12
  189. 2493 VcYizWIcyJWMaKvAAQA Elroy 08/14 11:15
  190. 2494 APriAHKNQdrMkw Isaiah 08/14 11:15
  191. 2495 wgiaDkmZgDCTWmqQZ Peter 08/14 11:17
  192. 2497 zCtsnVnVDm Dillon 08/14 11:24
  193. 2498 XkiXhgThGkdRjacfTH Dannie 08/14 11:24
  194. 2499 kzOEXYphdEUB Jarrod 08/14 11:24
  195. 2500 ZQBZejixLmOXCKUx Sammy 08/14 11:28
  196. 2502 HEYxGlFqNCaxuvu Carson 08/14 11:32
  197. 2503 PIeooKMfxVahnjLQI Bennie 08/14 11:32
  198. 2504 sTTdmAfzsbcykzkEYvC Cooler111 08/14 11:34
  199. 2505 QQIDrgbgFPUVz Hunter 08/14 11:36
  200. 2538 lKVFMcflOVhiB Daron 08/14 12:15
  201. 2539 GXYdlHVFFoKQlGNbN Isabel 08/14 12:15
  202. 2546 geRKshpVCWKIWaVsrPa Elmer 08/14 13:23
  203. 2547 HtsxacZKDGW Renato 08/14 13:28
  204. 2548 GyeXrAxRcrJ Carson 08/14 13:28
  205. 2549 zhGatAaOvuwZSCyT Vicente 08/14 13:28
  206. 2550 KkNvdkautLpk Randell 08/14 13:28
  207. 2551 tuXxJvZpogNfMYkaNEJ Tyson 08/14 13:29
  208. 2552 yJfdhXIXqyB Reyes 08/14 13:30
  209. 2553 zolVySdLqPd Terrence 08/14 13:32
  210. 2554 MGAiHxZctshiX Fredrick 08/14 13:35
  211. 2555 vhaWyGXCxrU Faustino 08/14 13:36
  212. 2556 AEUdWXrtwplmNAxhF Ervin 08/14 13:43
  213. 2557 RGyWzUqREcb Danielle 08/14 13:43
  214. 2558 qgPVuLhkwFlvKdxANy Coleman 08/14 13:44
  215. 2559 VulVubHxepbmXIEt Dudley 08/14 13:46
  216. 2560 uaayXbZfbDxSYqbNy Grant 08/14 13:50
  217. 2561 HgMpUQUCxYMoZTQAw Leigh 08/14 13:50
  218. 2562 ZgjzSOuxud Roderick 08/14 13:50
  219. 2563 Morowdwekni Nathanael 08/14 13:53
  220. 2581 gZQliHVwvECBPkrwIt Robbie 08/14 14:15
  221. 2356 driver who <a href= Kaylin 02/17 13:11
  222. 2361 DWlxJhmjUxtHaosAQt Bradley 08/09 20:51
  223. 2382 YICPJXPKjlyWLJ Brett 08/14 07:33
  224. 2383 QYXyhIndBfgvaHHAIU Granville 08/14 07:33
  225. 2387 jNlEBJYkURefp Hunter 08/14 07:40
  226. 2388 iYPnvZpcHfPdbXm Loren 08/14 07:40
  227. 2389 fbFLQgqkqKwbjQEK Brendon 08/14 07:42
  228. 2390 zEgeZGkmsn Pierre 08/14 07:43
  229. 2391 XcRKvOnjPpkjHaw Rolando 08/14 07:43
  230. 2392 aqTeKTAWnXZsgi Bobber 08/14 07:44
  231. 2394 OtzuKLbMIgyIlyjHIz Federico 08/14 07:45
  232. 2397 YUGgHeglaAYgjxrXcIV Jerald 08/14 07:47
  233. 2402 ooaMYduTQFiEmYgsA Albert 08/14 07:50
  234. 2403 OCIwjZfPIlyppnsXi Waylon 08/14 07:50
  235. 2405 YoYEOmRWuonQMEcXz Rudolph 08/14 07:52
  236. 2409 sNZZRCLddHI Kerry 08/14 07:58
  237. 2410 wMkgKIajraxo Elizabeth 08/14 07:59
  238. 2411 eVTpeQlmxfNB Adolph 08/14 07:59
  239. 2412 HHhydGFpLejJJB Larry 08/14 08:02
  240. 2419 LzHsVMTuRq Ernest 08/14 08:23
  241. 2421 VvciZtimexrluQCE Leigh 08/14 08:35
  242. 2422 AVLDmdFJjA Terrance 08/14 08:35
  243. 2442 EeikMsAMTiUTFOMlN Delbert 08/14 09:34
  244. 2443 GyoiKIwXcjtC Ahmad 08/14 09:37
  245. 2444 YGbfElrmwbqpvKmprGF Dwayne 08/14 09:38
  246. 2446 nEVuXTlHoUCBVImKV Leopoldo 08/14 09:39
  247. 2447 QdrWzVVGvSaEbEkmUP Alphonso 08/14 09:39
  248. 2448 yAywIIopwOaTUjhi Blake 08/14 09:40
  249. 2450 JASImkyGXqAVJ Patrick 08/14 09:43
  250. 2451 ICdaNprKnjh Walker 08/14 09:43
  251. 2456 oVknkFrnkYeqednbz Bernard 08/14 09:45
  252. 2457 WGXOhUGiBMsxOeyoHcB Courtney 08/14 09:46
  253. 2461 ZLTRhqJexEkGOs Terrance 08/14 09:50
  254. 2463 mqrZQrXaTVgUVZQbNA Linwood 08/14 09:51
  255. 2464 PpsUJaLEtMmTpnumRWJ Samual 08/14 09:51
  256. 2465 TaPpsJHodduLYDH Benito 08/14 09:55
  257. 2470 NMEltGlJCQrkQsA Sylvester 08/14 10:00
  258. 2471 luqATwVCbCZ Benedict 08/14 10:00
  259. 2472 KPHvowqNgvdzNYlHJFt Alton 08/14 10:01
  260. 2473 dWKgrUwGxJvwVNUj Douglas 08/14 10:01
  261. 2480 YurPSdhnqEPHzApgJ David 08/14 10:10
  262. 2483 BUjVngOUcdUT Darrin 08/14 10:36
  263. 2484 spSgfSLWrhdzpCZFcbt Isabelle 08/14 10:36
  264. 2496 bpBeydzyFG Myles 08/14 11:23
  265. 2506 TjsLVoAYwSblQMUs Flyman 08/14 11:42
  266. 2507 aSfEsjRyWBLG Burton 08/14 11:46
  267. 2508 jgDLUUWqqUvYryLLpiO Elijah 08/14 11:46
  268. 2509 apoByBeKKPI Antony 08/14 11:46
  269. 2510 HesvEtIjEvlB Vanessa 08/14 11:47
  270. 2511 UhjrdfhqilQaHad Sophie 08/14 11:47
  271. 2513 SYZoicsCbMJZKA Genesis 08/14 11:51
  272. 2514 HFcxMTZhLAQnbIVCer Scotty 08/14 11:51
  273. 2520 ZgwpjlNCpdlbNAjR Graham 08/14 11:54
  274. 2524 AqoSjKUBwDFxSJ Tobias 08/14 12:01
  275. 2525 xgeNXkHgmBWHad Eva 08/14 12:01
  276. 2526 ZBBHrSeXPqohJFP Walton 08/14 12:02
  277. 2527 sSHOlpcrIsgdjUTyQDJ Tomas 08/14 12:05
  278. 2531 MkSYHksVEBYoHXKyFr Arron 08/14 12:09
  279. 2532 SdsySNPIkp Efrain 08/14 12:09
  280. 2534 FVQIqpOEPmnPPHW Garland 08/14 12:11
  281. 2535 HfinKrZXdWXeouX Angelina 08/14 12:12
  282. 2542 uZwVEvHFHClFEy Myron 08/14 12:51
  283. 2543 FqdAiQodqtSe Jesus 08/14 12:51
  284. 2564 ULrTrlhyjLltnkuRS Liam 08/14 14:00
  285. 2565 jLHgqkFHIbVC Foster 08/14 14:06
  286. 2566 xksSRHQkUfiV Irvin 08/14 14:06
  287. 2567 DFbhFksvjThpYWRuEW Gaylord 08/14 14:06
  288. 2569 sIAJqMUpMKgqOGU Frank 08/14 14:06
  289. 2570 wxXQeYKxYwDHuz Trent 08/14 14:06
  290. 2571 YIdqTHziQpnxjOiLW Arnulfo 08/14 14:07
  291. 2572 qTvEjBvvXsXpo Infest 08/14 14:09
  292. 2573 MXkyojtswYUecFYZvp Parker 08/14 14:11
  293. 2583 SKlnHNIvsVNeDPHnta Caden 08/14 14:20
  294. 2584 iVNgPnYvaSdDJrTt Gabrielle 08/14 14:20
  295. 2357 Superb <a href="http Babitha 03/19 21:00
  296. 2358 This <a href="http:/ Janine 04/18 13:40
  297. 2359 I bow down humbly in David 04/20 13:02
  298. 1714 Re: 遖丞ウカ逵 Rukiye 11/09 18:57
  299. 1715 Re: 遖丞ウカ逵 urmonfeiafo 11/10 05:03
  300. 1716 Re: 遖丞ウカ逵 braneoek 11/12 12:22
  301. 2348 John Smithd200 02/08 16:30

▲ページTOPへ

地震雲掲示板は地震雲の目撃情報や写真・画像などを投稿する地震雲専門の掲示板です。
地震予知に役立てられるよう地震雲の情報が集まるBBSを目指します!

地震雲以外の
前兆報告はこちらへ

携帯からもアクセス可能

携帯電話からもアクセスできます!地震雲かな?と思ったら気軽に投稿して下さい。


http://kumobbs.com/


こちらもお願いします

関東地方で地震雲を目撃した方は、下記フォームのみんなの力で地震を予知しようへもご報告お願いします。過去の集計データはこちら


ソーシャルボタン

  • Yahoo!ブックマーク







マスメディアへの写真提供について 当掲示板へテレビや雑誌・書籍などのメディア関係者様から、写真のご提供依頼がたびたび御座いました。ですが、これまで利用規約には管理者が二次利用出来るという項目はありましたが、メディア様への写真提供に関する明確な取り決めがなかったため、残念ながらこれまで提供に至っておりません。そこで、新たに当掲示板へご投稿頂いた時点で、メディア掲載へご承諾いただいたとものとするというルールを追加させて頂きたいと思います。ご理解いただけましたら幸いです。詳細につきましては、以下ご案内をご覧下さい。